sensor_id;sensor_type;location;lat;lon;timestamp;pressure;altitude;pressure_sealevel;temperature;humidity
6136;BME280;24008;42.664;23.372;2023-03-26T00:01:24;94217.69;;;10.09;73.58
6136;BME280;24008;42.664;23.372;2023-03-26T00:03:53;94214.19;;;10.10;73.82
6136;BME280;24008;42.664;23.372;2023-03-26T00:06:24;94266.09;;;10.37;74.51
6136;BME280;24008;42.664;23.372;2023-03-26T00:08:52;94249.00;;;10.11;74.59
6136;BME280;24008;42.664;23.372;2023-03-26T00:11:21;94266.69;;;10.31;74.23
6136;BME280;24008;42.664;23.372;2023-03-26T00:13:48;94208.69;;;9.97;74.89
6136;BME280;24008;42.664;23.372;2023-03-26T00:16:18;94256.47;;;10.31;75.02
6136;BME280;24008;42.664;23.372;2023-03-26T00:18:45;94255.47;;;10.24;75.15
6136;BME280;24008;42.664;23.372;2023-03-26T00:21:15;94230.41;;;10.01;74.86
6136;BME280;24008;42.664;23.372;2023-03-26T00:23:43;94247.72;;;10.16;75.49
6136;BME280;24008;42.664;23.372;2023-03-26T00:26:10;94246.44;;;10.11;75.45
6136;BME280;24008;42.664;23.372;2023-03-26T00:28:37;94091.00;;;9.05;75.23
6136;BME280;24008;42.664;23.372;2023-03-26T00:31:05;94037.78;;;8.66;76.61
6136;BME280;24008;42.664;23.372;2023-03-26T00:33:33;94153.09;;;9.39;76.27
6136;BME280;24008;42.664;23.372;2023-03-26T00:36:04;94207.03;;;9.70;76.27
6136;BME280;24008;42.664;23.372;2023-03-26T00:38:34;94151.47;;;9.38;76.61
6136;BME280;24008;42.664;23.372;2023-03-26T00:41:06;94232.88;;;9.93;76.21
6136;BME280;24008;42.664;23.372;2023-03-26T00:43:43;94179.59;;;9.47;76.19
6136;BME280;24008;42.664;23.372;2023-03-26T00:46:11;94132.69;;;9.22;76.11
6136;BME280;24008;42.664;23.372;2023-03-26T00:48:38;94073.44;;;8.84;76.53
6136;BME280;24008;42.664;23.372;2023-03-26T00:51:07;94013.97;;;8.40;76.54
6136;BME280;24008;42.664;23.372;2023-03-26T00:53:34;94240.28;;;9.79;76.41
6136;BME280;24008;42.664;23.372;2023-03-26T00:56:06;94117.84;;;8.99;76.85
6136;BME280;24008;42.664;23.372;2023-03-26T00:58:33;94237.38;;;9.73;76.97
6136;BME280;24008;42.664;23.372;2023-03-26T01:01:02;94228.25;;;9.71;76.65
6136;BME280;24008;42.664;23.372;2023-03-26T01:03:32;94091.59;;;8.81;75.78
6136;BME280;24008;42.664;23.372;2023-03-26T01:06:01;94197.31;;;9.48;75.48
6136;BME280;24008;42.664;23.372;2023-03-26T01:08:31;94234.81;;;9.73;75.14
6136;BME280;24008;42.664;23.372;2023-03-26T01:11:02;94233.88;;;9.74;74.88
6136;BME280;24008;42.664;23.372;2023-03-26T01:13:36;94241.41;;;9.76;74.24
6136;BME280;24008;42.664;23.372;2023-03-26T01:16:06;94248.09;;;9.77;74.00
6136;BME280;24008;42.664;23.372;2023-03-26T01:18:36;94247.78;;;9.80;73.71
6136;BME280;24008;42.664;23.372;2023-03-26T01:21:07;94266.31;;;9.82;73.59
6136;BME280;24008;42.664;23.372;2023-03-26T01:23:42;94089.59;;;8.75;73.26
6136;BME280;24008;42.664;23.372;2023-03-26T01:26:20;94263.25;;;9.79;74.10
6136;BME280;24008;42.664;23.372;2023-03-26T01:28:54;94252.22;;;9.78;74.45
6136;BME280;24008;42.664;23.372;2023-03-26T01:31:26;94273.63;;;9.77;73.60
6136;BME280;24008;42.664;23.372;2023-03-26T01:33:59;94231.94;;;9.51;74.21
6136;BME280;24008;42.664;23.372;2023-03-26T01:36:33;94271.50;;;9.72;74.30
6136;BME280;24008;42.664;23.372;2023-03-26T01:39:07;94291.13;;;9.72;74.13
6136;BME280;24008;42.664;23.372;2023-03-26T01:41:41;94261.44;;;9.71;75.06
6136;BME280;24008;42.664;23.372;2023-03-26T01:44:13;94272.59;;;9.70;74.61
6136;BME280;24008;42.664;23.372;2023-03-26T01:46:42;94264.28;;;9.68;74.93
6136;BME280;24008;42.664;23.372;2023-03-26T01:49:10;94208.75;;;9.26;76.24
6136;BME280;24008;42.664;23.372;2023-03-26T01:51:40;94270.78;;;9.62;75.70
6136;BME280;24008;42.664;23.372;2023-03-26T01:54:11;94271.59;;;9.63;75.99
6136;BME280;24008;42.664;23.372;2023-03-26T01:56:49;94235.19;;;9.25;76.58
6136;BME280;24008;42.664;23.372;2023-03-26T01:59:34;94276.97;;;9.60;77.08
6136;BME280;24008;42.664;23.372;2023-03-26T02:02:09;94266.63;;;9.61;76.76
6136;BME280;24008;42.664;23.372;2023-03-26T02:04:42;94166.28;;;8.99;77.41
6136;BME280;24008;42.664;23.372;2023-03-26T02:07:19;94237.81;;;9.33;77.54
6136;BME280;24008;42.664;23.372;2023-03-26T02:09:49;94273.75;;;9.58;77.20
6136;BME280;24008;42.664;23.372;2023-03-26T02:12:21;94270.06;;;9.52;77.91
6136;BME280;24008;42.664;23.372;2023-03-26T02:14:49;94279.06;;;9.47;78.20
6136;BME280;24008;42.664;23.372;2023-03-26T02:17:16;94134.41;;;8.50;78.46
6136;BME280;24008;42.664;23.372;2023-03-26T02:19:43;94190.03;;;8.73;78.87
6136;BME280;24008;42.664;23.372;2023-03-26T02:22:12;94282.78;;;9.34;78.94
6136;BME280;24008;42.664;23.372;2023-03-26T02:24:40;94213.81;;;8.91;79.42
6136;BME280;24008;42.664;23.372;2023-03-26T02:27:07;94221.09;;;8.86;80.18
6136;BME280;24008;42.664;23.372;2023-03-26T02:29:38;94290.41;;;9.17;81.61
6136;BME280;24008;42.664;23.372;2023-03-26T02:32:06;94193.63;;;8.52;81.20
6136;BME280;24008;42.664;23.372;2023-03-26T02:34:33;94264.97;;;9.07;81.31
6136;BME280;24008;42.664;23.372;2023-03-26T02:37:01;94157.66;;;8.28;81.76
6136;BME280;24008;42.664;23.372;2023-03-26T02:39:27;94262.47;;;8.97;81.91
6136;BME280;24008;42.664;23.372;2023-03-26T02:41:54;94274.69;;;8.94;82.03
6136;BME280;24008;42.664;23.372;2023-03-26T02:44:21;94254.88;;;8.88;81.79
6136;BME280;24008;42.664;23.372;2023-03-26T02:46:49;94246.03;;;8.82;82.09
6136;BME280;24008;42.664;23.372;2023-03-26T02:49:16;94276.53;;;9.01;82.24
6136;BME280;24008;42.664;23.372;2023-03-26T02:51:43;94278.28;;;9.01;82.43
6136;BME280;24008;42.664;23.372;2023-03-26T02:54:10;94281.50;;;9.03;81.68
6136;BME280;24008;42.664;23.372;2023-03-26T02:56:36;94181.75;;;8.43;82.29
6136;BME280;24008;42.664;23.372;2023-03-26T02:59:03;94267.81;;;8.77;82.76
6136;BME280;24008;42.664;23.372;2023-03-26T03:01:30;94227.16;;;8.48;82.97
6136;BME280;24008;42.664;23.372;2023-03-26T03:04:01;94300.75;;;8.88;83.46
6136;BME280;24008;42.664;23.372;2023-03-26T03:06:28;94205.94;;;8.20;84.29
6136;BME280;24008;42.664;23.372;2023-03-26T03:08:56;94314.03;;;8.82;84.35
6136;BME280;24008;42.664;23.372;2023-03-26T03:11:23;94115.72;;;7.58;83.87
6136;BME280;24008;42.664;23.372;2023-03-26T03:13:50;94307.09;;;8.74;84.49
6136;BME280;24008;42.664;23.372;2023-03-26T03:16:17;94133.19;;;7.24;83.56
6136;BME280;24008;42.664;23.372;2023-03-26T03:18:44;94280.38;;;8.51;84.09
6136;BME280;24008;42.664;23.372;2023-03-26T03:21:13;94161.72;;;7.74;83.96
6136;BME280;24008;42.664;23.372;2023-03-26T03:23:40;94316.13;;;8.69;84.17
6136;BME280;24008;42.664;23.372;2023-03-26T03:26:12;94139.84;;;7.44;83.58
6136;BME280;24008;42.664;23.372;2023-03-26T03:28:39;94321.50;;;8.65;84.32
6136;BME280;24008;42.664;23.372;2023-03-26T03:31:06;94286.97;;;8.34;83.80
6136;BME280;24008;42.664;23.372;2023-03-26T03:33:33;94324.16;;;8.64;84.01
6136;BME280;24008;42.664;23.372;2023-03-26T03:36:01;94298.09;;;8.43;84.39
6136;BME280;24008;42.664;23.372;2023-03-26T03:38:36;94147.34;;;7.46;84.58
6136;BME280;24008;42.664;23.372;2023-03-26T03:41:03;94334.09;;;8.57;84.32
6136;BME280;24008;42.664;23.372;2023-03-26T03:43:30;94330.91;;;8.55;83.96
6136;BME280;24008;42.664;23.372;2023-03-26T03:45:57;94321.00;;;8.52;83.42
6136;BME280;24008;42.664;23.372;2023-03-26T03:48:24;94326.63;;;8.46;84.18
6136;BME280;24008;42.664;23.372;2023-03-26T03:50:52;94146.00;;;7.32;83.63
6136;BME280;24008;42.664;23.372;2023-03-26T03:53:19;94293.44;;;8.19;84.54
6136;BME280;24008;42.664;23.372;2023-03-26T03:55:47;94267.72;;;8.03;84.22
6136;BME280;24008;42.664;23.372;2023-03-26T03:58:17;94329.59;;;8.42;84.65
6136;BME280;24008;42.664;23.372;2023-03-26T04:00:47;94339.91;;;8.40;84.96
6136;BME280;24008;42.664;23.372;2023-03-26T04:03:14;94329.06;;;8.38;84.84
6136;BME280;24008;42.664;23.372;2023-03-26T04:05:41;94272.41;;;7.97;84.69
6136;BME280;24008;42.664;23.372;2023-03-26T04:08:14;94285.94;;;7.98;84.82
6136;BME280;24008;42.664;23.372;2023-03-26T04:10:40;94332.53;;;8.37;85.46
6136;BME280;24008;42.664;23.372;2023-03-26T04:13:09;94153.22;;;7.27;85.42
6136;BME280;24008;42.664;23.372;2023-03-26T04:15:36;94347.41;;;8.42;85.87
6136;BME280;24008;42.664;23.372;2023-03-26T04:18:03;94355.56;;;8.45;85.03
6136;BME280;24008;42.664;23.372;2023-03-26T04:20:35;94255.56;;;7.77;84.84
6136;BME280;24008;42.664;23.372;2023-03-26T04:23:02;94177.56;;;7.30;84.44
6136;BME280;24008;42.664;23.372;2023-03-26T04:25:30;94385.34;;;8.54;84.89
6136;BME280;24008;42.664;23.372;2023-03-26T04:27:58;94390.13;;;8.57;84.30
6136;BME280;24008;42.664;23.372;2023-03-26T04:30:33;94389.59;;;8.63;85.41
6136;BME280;24008;42.664;23.372;2023-03-26T04:33:00;94357.97;;;8.47;84.24
6136;BME280;24008;42.664;23.372;2023-03-26T04:35:31;94344.59;;;8.35;84.42
6136;BME280;24008;42.664;23.372;2023-03-26T04:38:00;94406.19;;;8.77;83.90
6136;BME280;24008;42.664;23.372;2023-03-26T04:40:31;94344.06;;;8.41;84.26
6136;BME280;24008;42.664;23.372;2023-03-26T04:42:59;94411.97;;;8.79;83.59
6136;BME280;24008;42.664;23.372;2023-03-26T04:45:28;94337.34;;;8.30;83.65
6136;BME280;24008;42.664;23.372;2023-03-26T04:47:57;94408.88;;;8.76;83.67
6136;BME280;24008;42.664;23.372;2023-03-26T04:50:24;94375.81;;;8.47;83.06
6136;BME280;24008;42.664;23.372;2023-03-26T04:52:52;94430.59;;;8.70;83.46
6136;BME280;24008;42.664;23.372;2023-03-26T04:55:23;94349.56;;;8.27;84.04
6136;BME280;24008;42.664;23.372;2023-03-26T04:57:53;94411.03;;;8.71;83.48
6136;BME280;24008;42.664;23.372;2023-03-26T05:00:21;94420.16;;;8.73;83.44
6136;BME280;24008;42.664;23.372;2023-03-26T05:02:49;94413.84;;;8.77;82.54
6136;BME280;24008;42.664;23.372;2023-03-26T05:05:21;94409.41;;;8.79;81.69
6136;BME280;24008;42.664;23.372;2023-03-26T05:07:48;94415.03;;;8.83;80.77
6136;BME280;24008;42.664;23.372;2023-03-26T05:10:15;94407.13;;;8.86;80.25
6136;BME280;24008;42.664;23.372;2023-03-26T05:12:44;94423.88;;;8.88;79.37
6136;BME280;24008;42.664;23.372;2023-03-26T05:15:12;94369.22;;;8.63;78.48
6136;BME280;24008;42.664;23.372;2023-03-26T05:17:39;94369.19;;;8.73;77.49
6136;BME280;24008;42.664;23.372;2023-03-26T05:20:10;94347.72;;;8.76;77.06
6136;BME280;24008;42.664;23.372;2023-03-26T05:22:43;94377.06;;;9.26;76.33
6136;BME280;24008;42.664;23.372;2023-03-26T05:25:10;94240.44;;;9.24;72.58
6136;BME280;24008;42.664;23.372;2023-03-26T05:27:36;94433.28;;;11.04;69.32
6136;BME280;24008;42.664;23.372;2023-03-26T05:30:05;94391.50;;;10.95;66.94
6136;BME280;24008;42.664;23.372;2023-03-26T05:32:32;94417.03;;;11.81;65.59
6136;BME280;24008;42.664;23.372;2023-03-26T05:34:59;94284.28;;;11.52;62.48
6136;BME280;24008;42.664;23.372;2023-03-26T05:37:27;94244.13;;;11.52;61.72
6136;BME280;24008;42.664;23.372;2023-03-26T05:39:57;94430.91;;;12.69;61.56
6136;BME280;24008;42.664;23.372;2023-03-26T05:42:24;94340.09;;;12.07;62.26
6136;BME280;24008;42.664;23.372;2023-03-26T05:44:51;94453.97;;;13.10;60.78
6136;BME280;24008;42.664;23.372;2023-03-26T05:47:18;94448.19;;;13.24;60.26
6136;BME280;24008;42.664;23.372;2023-03-26T05:49:45;94339.78;;;13.14;58.89
6136;BME280;24008;42.664;23.372;2023-03-26T05:52:12;94074.25;;;11.78;57.39
6136;BME280;24008;42.664;23.372;2023-03-26T05:54:40;94231.81;;;12.84;56.51
6136;BME280;24008;42.664;23.372;2023-03-26T05:57:08;94446.97;;;14.60;55.04
6136;BME280;24008;42.664;23.372;2023-03-26T05:59:35;94304.09;;;13.66;54.79
6136;BME280;24008;42.664;23.372;2023-03-26T06:02:02;94345.66;;;14.38;54.38
6136;BME280;24008;42.664;23.372;2023-03-26T06:04:29;94365.22;;;14.70;52.67
6136;BME280;24008;42.664;23.372;2023-03-26T06:06:57;94423.16;;;15.62;52.31
6136;BME280;24008;42.664;23.372;2023-03-26T06:09:24;94429.00;;;16.21;50.66
6136;BME280;24008;42.664;23.372;2023-03-26T06:11:50;94373.34;;;16.06;48.84
6136;BME280;24008;42.664;23.372;2023-03-26T06:14:19;94435.16;;;16.78;48.44
6136;BME280;24008;42.664;23.372;2023-03-26T06:16:45;94325.63;;;16.87;46.59
6136;BME280;24008;42.664;23.372;2023-03-26T06:19:14;94162.88;;;16.26;44.13
6136;BME280;24008;42.664;23.372;2023-03-26T06:21:40;94421.50;;;18.22;42.89
6136;BME280;24008;42.664;23.372;2023-03-26T06:24:07;94422.81;;;18.79;41.53
6136;BME280;24008;42.664;23.372;2023-03-26T06:26:34;94343.34;;;18.66;40.62
6136;BME280;24008;42.664;23.372;2023-03-26T06:29:01;94426.16;;;19.45;39.89
6136;BME280;24008;42.664;23.372;2023-03-26T06:31:29;94423.34;;;19.73;38.90
6136;BME280;24008;42.664;23.372;2023-03-26T06:33:56;94185.91;;;18.17;39.21
6136;BME280;24008;42.664;23.372;2023-03-26T06:36:23;94414.59;;;19.61;38.79
6136;BME280;24008;42.664;23.372;2023-03-26T06:38:50;94307.44;;;19.09;39.08
6136;BME280;24008;42.664;23.372;2023-03-26T06:41:17;94368.69;;;19.74;38.25
6136;BME280;24008;42.664;23.372;2023-03-26T06:43:43;94182.25;;;18.57;38.95
6136;BME280;24008;42.664;23.372;2023-03-26T06:46:10;94406.25;;;20.48;38.51
6136;BME280;24008;42.664;23.372;2023-03-26T06:48:39;94431.41;;;20.79;36.64
6136;BME280;24008;42.664;23.372;2023-03-26T06:51:06;94387.94;;;20.68;36.53
6136;BME280;24008;42.664;23.372;2023-03-26T06:53:33;94374.81;;;20.25;36.62
6136;BME280;24008;42.664;23.372;2023-03-26T06:56:00;94207.38;;;19.66;35.80
6136;BME280;24008;42.664;23.372;2023-03-26T06:58:27;94403.34;;;21.19;35.54
6136;BME280;24008;42.664;23.372;2023-03-26T07:00:55;94474.97;;;21.83;34.15
6136;BME280;24008;42.664;23.372;2023-03-26T07:03:22;94060.56;;;19.40;34.15
6136;BME280;24008;42.664;23.372;2023-03-26T07:05:50;94358.75;;;21.40;34.32
6136;BME280;24008;42.664;23.372;2023-03-26T07:08:17;94420.84;;;21.30;33.58
6136;BME280;24008;42.664;23.372;2023-03-26T07:10:44;94441.59;;;21.37;34.22
6136;BME280;24008;42.664;23.372;2023-03-26T07:13:10;94279.47;;;20.70;33.64
6136;BME280;24008;42.664;23.372;2023-03-26T07:15:37;94391.75;;;21.76;33.20
6136;BME280;24008;42.664;23.372;2023-03-26T07:18:04;94458.94;;;22.04;33.52
6136;BME280;24008;42.664;23.372;2023-03-26T07:20:31;94379.84;;;21.50;33.08
6136;BME280;24008;42.664;23.372;2023-03-26T07:23:00;94292.28;;;20.08;34.78
6136;BME280;24008;42.664;23.372;2023-03-26T07:25:28;94458.09;;;20.93;35.47
6136;BME280;24008;42.664;23.372;2023-03-26T07:27:59;94432.97;;;21.61;34.39
6136;BME280;24008;42.664;23.372;2023-03-26T07:30:35;94412.94;;;21.62;33.66
6136;BME280;24008;42.664;23.372;2023-03-26T07:33:10;94416.13;;;22.48;33.19
6136;BME280;24008;42.664;23.372;2023-03-26T07:35:45;94400.41;;;22.96;32.40
6136;BME280;24008;42.664;23.372;2023-03-26T07:38:35;94272.25;;;21.63;32.21
6136;BME280;24008;42.664;23.372;2023-03-26T07:41:08;94450.38;;;22.34;32.63
6136;BME280;24008;42.664;23.372;2023-03-26T07:43:52;94453.44;;;22.12;32.14
6136;BME280;24008;42.664;23.372;2023-03-26T07:46:26;94449.13;;;22.66;31.35
6136;BME280;24008;42.664;23.372;2023-03-26T07:48:55;94319.09;;;22.11;30.18
6136;BME280;24008;42.664;23.372;2023-03-26T07:51:25;94361.72;;;22.28;31.87
6136;BME280;24008;42.664;23.372;2023-03-26T07:53:54;94162.81;;;20.87;31.49
6136;BME280;24008;42.664;23.372;2023-03-26T07:56:25;93927.81;;;18.95;32.41
6136;BME280;24008;42.664;23.372;2023-03-26T07:59:00;94446.06;;;22.09;33.44
6136;BME280;24008;42.664;23.372;2023-03-26T08:01:40;94368.00;;;22.09;32.28
6136;BME280;24008;42.664;23.372;2023-03-26T08:07:07;94432.81;;;21.92;32.83
6136;BME280;24008;42.664;23.372;2023-03-26T08:09:43;94436.94;;;22.00;32.92
6136;BME280;24008;42.664;23.372;2023-03-26T08:12:25;94438.22;;;21.54;31.76
6136;BME280;24008;42.664;23.372;2023-03-26T08:14:59;94432.88;;;21.68;32.62
6136;BME280;24008;42.664;23.372;2023-03-26T08:17:35;94441.84;;;22.26;32.08
6136;BME280;24008;42.664;23.372;2023-03-26T08:20:13;94454.56;;;22.35;32.09
6136;BME280;24008;42.664;23.372;2023-03-26T08:22:48;94446.88;;;22.99;30.94
6136;BME280;24008;42.664;23.372;2023-03-26T08:25:25;94436.75;;;22.80;30.46
6136;BME280;24008;42.664;23.372;2023-03-26T08:28:04;94407.56;;;23.24;29.18
6136;BME280;24008;42.664;23.372;2023-03-26T08:30:36;94420.59;;;21.75;30.25
6136;BME280;24008;42.664;23.372;2023-03-26T08:33:10;94445.66;;;22.42;29.79
6136;BME280;24008;42.664;23.372;2023-03-26T08:35:38;94446.91;;;22.70;28.09
6136;BME280;24008;42.664;23.372;2023-03-26T08:38:07;94334.22;;;22.33;27.86
6136;BME280;24008;42.664;23.372;2023-03-26T08:43:49;94436.00;;;21.58;30.30
6136;BME280;24008;42.664;23.372;2023-03-26T08:46:41;94038.72;;;19.79;31.07
6136;BME280;24008;42.664;23.372;2023-03-26T08:49:50;94426.78;;;22.88;28.74
6136;BME280;24008;42.664;23.372;2023-03-26T08:52:39;94295.97;;;21.55;28.42
6136;BME280;24008;42.664;23.372;2023-03-26T08:55:36;94424.34;;;22.75;28.73
6136;BME280;24008;42.664;23.372;2023-03-26T09:01:36;94274.28;;;22.86;29.02
6136;BME280;24008;42.664;23.372;2023-03-26T09:07:41;94424.59;;;23.39;28.81
6136;BME280;24008;42.664;23.372;2023-03-26T09:10:35;94415.16;;;23.03;28.10
6136;BME280;24008;42.664;23.372;2023-03-26T09:13:32;93910.75;;;18.18;28.13
6136;BME280;24008;42.664;23.372;2023-03-26T09:16:24;94289.78;;;20.27;30.45
6136;BME280;24008;42.664;23.372;2023-03-26T09:28:28;94417.13;;;21.81;28.35
6136;BME280;24008;42.664;23.372;2023-03-26T09:34:28;94424.63;;;21.03;29.63
6136;BME280;24008;42.664;23.372;2023-03-26T09:37:07;94348.94;;;21.24;31.16
6136;BME280;24008;42.664;23.372;2023-03-26T09:39:49;94234.97;;;20.84;27.95
6136;BME280;24008;42.664;23.372;2023-03-26T09:42:23;93627.50;;;17.90;27.96
6136;BME280;24008;42.664;23.372;2023-03-26T09:48:19;94398.94;;;23.35;27.20
6136;BME280;24008;42.664;23.372;2023-03-26T09:51:02;94399.22;;;22.69;26.92
6136;BME280;24008;42.664;23.372;2023-03-26T09:56:33;93994.94;;;20.74;27.38
6136;BME280;24008;42.664;23.372;2023-03-26T09:59:42;94319.81;;;22.95;27.18
6136;BME280;24008;42.664;23.372;2023-03-26T10:02:37;94037.31;;;20.74;28.66
6136;BME280;24008;42.664;23.372;2023-03-26T10:05:21;94236.50;;;22.18;26.64
6136;BME280;24008;42.664;23.372;2023-03-26T10:08:05;94433.75;;;23.18;26.32
6136;BME280;24008;42.664;23.372;2023-03-26T10:10:43;94231.97;;;22.25;26.54
6136;BME280;24008;42.664;23.372;2023-03-26T10:13:23;94271.50;;;22.34;26.61
6136;BME280;24008;42.664;23.372;2023-03-26T10:16:01;94230.19;;;22.38;26.81
6136;BME280;24008;42.664;23.372;2023-03-26T10:18:40;94251.25;;;22.71;26.61
6136;BME280;24008;42.664;23.372;2023-03-26T10:21:20;94056.28;;;21.16;27.34
6136;BME280;24008;42.664;23.372;2023-03-26T10:24:03;94358.38;;;23.16;26.37
6136;BME280;24008;42.664;23.372;2023-03-26T10:26:50;94325.50;;;23.04;26.02
6136;BME280;24008;42.664;23.372;2023-03-26T10:29:35;94343.84;;;22.97;26.67
6136;BME280;24008;42.664;23.372;2023-03-26T10:32:21;94209.94;;;21.98;26.38
6136;BME280;24008;42.664;23.372;2023-03-26T10:35:04;94326.41;;;22.86;27.32
6136;BME280;24008;42.664;23.372;2023-03-26T10:37:46;94211.72;;;22.27;25.85
6136;BME280;24008;42.664;23.372;2023-03-26T10:40:24;94263.16;;;21.72;25.44
6136;BME280;24008;42.664;23.372;2023-03-26T10:43:18;94335.66;;;21.32;26.68
6136;BME280;24008;42.664;23.372;2023-03-26T10:46:11;94320.94;;;22.22;26.93
6136;BME280;24008;42.664;23.372;2023-03-26T10:48:57;93840.22;;;19.28;26.55
6136;BME280;24008;42.664;23.372;2023-03-26T10:51:41;93913.69;;;20.25;26.44
6136;BME280;24008;42.664;23.372;2023-03-26T10:54:22;94316.97;;;22.73;25.14
6136;BME280;24008;42.664;23.372;2023-03-26T10:56:51;94014.03;;;20.79;26.43
6136;BME280;24008;42.664;23.372;2023-03-26T10:59:19;93975.31;;;20.30;26.82
6136;BME280;24008;42.664;23.372;2023-03-26T11:01:54;94315.47;;;22.66;26.40
6136;BME280;24008;42.664;23.372;2023-03-26T11:04:31;94324.75;;;22.61;26.29
6136;BME280;24008;42.664;23.372;2023-03-26T11:07:07;94212.38;;;21.70;26.12
6136;BME280;24008;42.664;23.372;2023-03-26T11:09:44;94299.50;;;21.79;27.88
6136;BME280;24008;42.664;23.372;2023-03-26T11:12:18;94298.22;;;21.70;26.88
6136;BME280;24008;42.664;23.372;2023-03-26T11:14:55;94295.34;;;21.60;26.07
6136;BME280;24008;42.664;23.372;2023-03-26T11:17:32;94242.31;;;21.06;26.35
6136;BME280;24008;42.664;23.372;2023-03-26T11:20:08;94250.13;;;20.88;26.57
6136;BME280;24008;42.664;23.372;2023-03-26T11:22:45;94077.41;;;19.24;26.78
6136;BME280;24008;42.664;23.372;2023-03-26T11:25:33;94289.88;;;20.07;27.97
6136;BME280;24008;42.664;23.372;2023-03-26T11:28:15;94250.06;;;19.05;28.53
6136;BME280;24008;42.664;23.372;2023-03-26T11:30:47;94240.59;;;18.53;28.57
6136;BME280;24008;42.664;23.372;2023-03-26T11:33:22;94289.78;;;18.66;29.10
6136;BME280;24008;42.664;23.372;2023-03-26T11:35:51;94305.09;;;18.48;30.07
6136;BME280;24008;42.664;23.372;2023-03-26T11:38:23;94289.34;;;18.36;30.88
6136;BME280;24008;42.664;23.372;2023-03-26T11:40:55;94275.63;;;18.10;28.61
6136;BME280;24008;42.664;23.372;2023-03-26T11:43:24;94022.88;;;16.45;29.93
6136;BME280;24008;42.664;23.372;2023-03-26T11:45:53;94213.91;;;17.67;30.55
6136;BME280;24008;42.664;23.372;2023-03-26T11:48:23;94261.28;;;17.94;30.25
6136;BME280;24008;42.664;23.372;2023-03-26T11:50:55;94253.16;;;17.97;31.39
6136;BME280;24008;42.664;23.372;2023-03-26T11:53:27;93931.03;;;15.77;29.80
6136;BME280;24008;42.664;23.372;2023-03-26T11:55:59;94237.81;;;17.95;29.80
6136;BME280;24008;42.664;23.372;2023-03-26T11:58:31;94079.84;;;16.98;31.23
6136;BME280;24008;42.664;23.372;2023-03-26T12:01:03;94225.88;;;17.94;30.77
6136;BME280;24008;42.664;23.372;2023-03-26T12:03:31;94120.75;;;17.01;28.69
6136;BME280;24008;42.664;23.372;2023-03-26T12:05:58;94221.00;;;17.52;29.01
6136;BME280;24008;42.664;23.372;2023-03-26T12:08:31;94213.81;;;17.41;29.26
6136;BME280;24008;42.664;23.372;2023-03-26T12:11:06;94191.09;;;17.16;29.48
6136;BME280;24008;42.664;23.372;2023-03-26T12:13:38;94214.28;;;17.51;30.35
6136;BME280;24008;42.664;23.372;2023-03-26T12:16:11;94127.28;;;16.97;29.38
6136;BME280;24008;42.664;23.372;2023-03-26T12:18:40;94202.38;;;17.63;29.18
6136;BME280;24008;42.664;23.372;2023-03-26T12:21:10;94206.38;;;17.72;30.49
6136;BME280;24008;42.664;23.372;2023-03-26T12:23:43;94186.69;;;17.71;29.79
6136;BME280;24008;42.664;23.372;2023-03-26T12:26:15;94159.59;;;17.47;29.12
6136;BME280;24008;42.664;23.372;2023-03-26T12:28:46;94182.06;;;17.60;28.75
6136;BME280;24008;42.664;23.372;2023-03-26T12:31:14;94165.31;;;17.29;28.40
6136;BME280;24008;42.664;23.372;2023-03-26T12:33:44;94131.72;;;17.29;29.84
6136;BME280;24008;42.664;23.372;2023-03-26T12:36:20;94163.34;;;17.51;28.86
6136;BME280;24008;42.664;23.372;2023-03-26T12:38:50;94164.94;;;17.52;28.44
6136;BME280;24008;42.664;23.372;2023-03-26T12:41:19;94162.38;;;17.52;28.31
6136;BME280;24008;42.664;23.372;2023-03-26T12:43:48;94167.75;;;17.51;28.41
6136;BME280;24008;42.664;23.372;2023-03-26T12:46:24;93995.16;;;16.61;28.35
6136;BME280;24008;42.664;23.372;2023-03-26T12:48:53;94041.94;;;16.44;26.38
6136;BME280;24008;42.664;23.372;2023-03-26T12:51:36;94026.88;;;16.54;27.25
6136;BME280;24008;42.664;23.372;2023-03-26T12:54:34;94148.22;;;17.28;27.08
6136;BME280;24008;42.664;23.372;2023-03-26T12:57:18;94146.47;;;17.36;26.29
6136;BME280;24008;42.664;23.372;2023-03-26T12:59:55;94124.78;;;17.30;25.39
6136;BME280;24008;42.664;23.372;2023-03-26T13:03:10;94145.66;;;17.42;25.80
6136;BME280;24008;42.664;23.372;2023-03-26T13:05:57;94135.16;;;17.37;24.71
6136;BME280;24008;42.664;23.372;2023-03-26T13:11:30;94151.78;;;17.27;26.41
6136;BME280;24008;42.664;23.372;2023-03-26T13:16:54;94047.50;;;16.54;25.61
6136;BME280;24008;42.664;23.372;2023-03-26T13:19:27;94117.59;;;17.06;25.34
6136;BME280;24008;42.664;23.372;2023-03-26T13:22:06;94012.53;;;16.32;25.38
6136;BME280;24008;42.664;23.372;2023-03-26T13:24:43;94117.16;;;16.89;25.20
6136;BME280;24008;42.664;23.372;2023-03-26T13:27:27;94072.56;;;16.61;24.85
6136;BME280;24008;42.664;23.372;2023-03-26T13:30:04;94085.13;;;16.70;25.28
6136;BME280;24008;42.664;23.372;2023-03-26T13:32:46;94124.72;;;16.97;24.88
6136;BME280;24008;42.664;23.372;2023-03-26T13:35:26;94041.19;;;16.50;24.60
6136;BME280;24008;42.664;23.372;2023-03-26T13:38:00;93975.50;;;15.99;24.57
6136;BME280;24008;42.664;23.372;2023-03-26T13:40:36;93992.41;;;16.08;24.25
6136;BME280;24008;42.664;23.372;2023-03-26T13:43:35;94067.84;;;16.71;25.02
6136;BME280;24008;42.664;23.372;2023-03-26T13:46:13;94059.66;;;16.61;25.40
6136;BME280;24008;42.664;23.372;2023-03-26T13:48:48;94123.13;;;17.03;24.42
6136;BME280;24008;42.664;23.372;2023-03-26T13:51:20;94019.69;;;16.37;24.63
6136;BME280;24008;42.664;23.372;2023-03-26T13:53:50;94033.94;;;16.33;24.91
6136;BME280;24008;42.664;23.372;2023-03-26T13:56:24;94117.72;;;16.84;24.85
6136;BME280;24008;42.664;23.372;2023-03-26T13:58:58;94119.50;;;16.84;24.94
6136;BME280;24008;42.664;23.372;2023-03-26T14:01:30;94106.38;;;16.72;24.39
6136;BME280;24008;42.664;23.372;2023-03-26T14:04:03;94055.63;;;16.38;25.60
6136;BME280;24008;42.664;23.372;2023-03-26T14:06:39;94035.72;;;16.32;25.55
6136;BME280;24008;42.664;23.372;2023-03-26T14:09:13;94105.34;;;16.67;25.25
6136;BME280;24008;42.664;23.372;2023-03-26T14:11:49;94059.19;;;16.44;25.64